sensor_id;sensor_type;location;lat;lon;timestamp;P1;durP1;ratioP1;P2;durP2;ratioP2
76593;SDS011;65482;50.240;14.302;2024-02-28T00:00:54;15.30;;;9.18;;
76593;SDS011;65482;50.240;14.302;2024-02-28T00:03:40;13.68;;;8.00;;
76593;SDS011;65482;50.240;14.302;2024-02-28T00:06:05;13.48;;;8.13;;
76593;SDS011;65482;50.240;14.302;2024-02-28T00:08:31;15.73;;;8.52;;
76593;SDS011;65482;50.240;14.302;2024-02-28T00:10:58;14.95;;;8.43;;
76593;SDS011;65482;50.240;14.302;2024-02-28T00:13:24;15.05;;;8.77;;
76593;SDS011;65482;50.240;14.302;2024-02-28T00:15:50;14.93;;;8.77;;
76593;SDS011;65482;50.240;14.302;2024-02-28T00:18:16;16.00;;;8.45;;
76593;SDS011;65482;50.240;14.302;2024-02-28T00:20:43;16.27;;;9.27;;
76593;SDS011;65482;50.240;14.302;2024-02-28T00:23:10;15.63;;;8.65;;
76593;SDS011;65482;50.240;14.302;2024-02-28T00:25:35;14.93;;;8.68;;
76593;SDS011;65482;50.240;14.302;2024-02-28T00:28:01;18.10;;;9.52;;
76593;SDS011;65482;50.240;14.302;2024-02-28T00:30:26;15.90;;;9.40;;
76593;SDS011;65482;50.240;14.302;2024-02-28T00:32:55;15.73;;;10.90;;
76593;SDS011;65482;50.240;14.302;2024-02-28T00:35:20;17.52;;;10.77;;
76593;SDS011;65482;50.240;14.302;2024-02-28T00:37:46;19.15;;;11.27;;
76593;SDS011;65482;50.240;14.302;2024-02-28T00:40:12;17.67;;;11.43;;
76593;SDS011;65482;50.240;14.302;2024-02-28T00:42:37;18.42;;;11.65;;
76593;SDS011;65482;50.240;14.302;2024-02-28T00:45:03;16.85;;;10.63;;
76593;SDS011;65482;50.240;14.302;2024-02-28T00:47:29;17.42;;;10.65;;
76593;SDS011;65482;50.240;14.302;2024-02-28T00:49:55;17.63;;;10.23;;
76593;SDS011;65482;50.240;14.302;2024-02-28T00:52:20;17.77;;;10.35;;
76593;SDS011;65482;50.240;14.302;2024-02-28T00:54:46;15.88;;;9.52;;
76593;SDS011;65482;50.240;14.302;2024-02-28T00:57:11;15.43;;;9.48;;
76593;SDS011;65482;50.240;14.302;2024-02-28T00:59:37;13.75;;;9.10;;
76593;SDS011;65482;50.240;14.302;2024-02-28T01:02:03;11.20;;;6.93;;
76593;SDS011;65482;50.240;14.302;2024-02-28T01:04:28;14.05;;;8.10;;
76593;SDS011;65482;50.240;14.302;2024-02-28T01:06:54;12.07;;;8.05;;
76593;SDS011;65482;50.240;14.302;2024-02-28T01:09:21;12.15;;;7.07;;
76593;SDS011;65482;50.240;14.302;2024-02-28T01:11:47;11.25;;;6.70;;
76593;SDS011;65482;50.240;14.302;2024-02-28T01:14:12;11.20;;;7.25;;
76593;SDS011;65482;50.240;14.302;2024-02-28T01:16:38;10.68;;;7.05;;
76593;SDS011;65482;50.240;14.302;2024-02-28T01:19:03;12.52;;;8.68;;
76593;SDS011;65482;50.240;14.302;2024-02-28T01:21:29;14.13;;;9.48;;
76593;SDS011;65482;50.240;14.302;2024-02-28T01:23:55;15.23;;;10.50;;
76593;SDS011;65482;50.240;14.302;2024-02-28T01:26:20;15.43;;;10.02;;
76593;SDS011;65482;50.240;14.302;2024-02-28T01:28:47;14.57;;;10.02;;
76593;SDS011;65482;50.240;14.302;2024-02-28T01:31:14;14.90;;;9.35;;
76593;SDS011;65482;50.240;14.302;2024-02-28T01:33:39;13.23;;;8.48;;
76593;SDS011;65482;50.240;14.302;2024-02-28T01:36:06;13.70;;;8.73;;
76593;SDS011;65482;50.240;14.302;2024-02-28T01:38:32;12.25;;;7.20;;
76593;SDS011;65482;50.240;14.302;2024-02-28T01:40:58;15.43;;;7.75;;
76593;SDS011;65482;50.240;14.302;2024-02-28T01:43:23;11.35;;;7.18;;
76593;SDS011;65482;50.240;14.302;2024-02-28T01:45:49;11.27;;;7.10;;
76593;SDS011;65482;50.240;14.302;2024-02-28T01:48:15;11.90;;;6.72;;
76593;SDS011;65482;50.240;14.302;2024-02-28T01:50:41;11.35;;;6.93;;
76593;SDS011;65482;50.240;14.302;2024-02-28T01:53:08;11.82;;;7.00;;
76593;SDS011;65482;50.240;14.302;2024-02-28T01:55:37;11.38;;;6.90;;
76593;SDS011;65482;50.240;14.302;2024-02-28T01:58:03;10.00;;;6.15;;
76593;SDS011;65482;50.240;14.302;2024-02-28T02:00:32;10.38;;;6.25;;
76593;SDS011;65482;50.240;14.302;2024-02-28T02:02:59;10.73;;;6.95;;
76593;SDS011;65482;50.240;14.302;2024-02-28T02:05:26;11.10;;;6.88;;
76593;SDS011;65482;50.240;14.302;2024-02-28T02:07:51;10.73;;;6.97;;
76593;SDS011;65482;50.240;14.302;2024-02-28T02:10:17;10.77;;;7.60;;
76593;SDS011;65482;50.240;14.302;2024-02-28T02:12:43;14.43;;;8.65;;
76593;SDS011;65482;50.240;14.302;2024-02-28T02:15:08;12.13;;;8.13;;
76593;SDS011;65482;50.240;14.302;2024-02-28T02:17:34;12.63;;;8.75;;
76593;SDS011;65482;50.240;14.302;2024-02-28T02:20:00;13.25;;;8.35;;
76593;SDS011;65482;50.240;14.302;2024-02-28T02:22:27;13.98;;;8.93;;
76593;SDS011;65482;50.240;14.302;2024-02-28T02:24:55;13.63;;;9.27;;
76593;SDS011;65482;50.240;14.302;2024-02-28T02:27:20;14.40;;;9.27;;
76593;SDS011;65482;50.240;14.302;2024-02-28T02:29:46;13.75;;;9.25;;
76593;SDS011;65482;50.240;14.302;2024-02-28T02:32:11;14.60;;;9.23;;
76593;SDS011;65482;50.240;14.302;2024-02-28T02:34:37;13.98;;;9.48;;
76593;SDS011;65482;50.240;14.302;2024-02-28T02:37:02;14.35;;;9.07;;
76593;SDS011;65482;50.240;14.302;2024-02-28T02:39:30;15.18;;;9.82;;
76593;SDS011;65482;50.240;14.302;2024-02-28T02:41:55;18.50;;;11.35;;
76593;SDS011;65482;50.240;14.302;2024-02-28T02:44:21;17.92;;;10.88;;
76593;SDS011;65482;50.240;14.302;2024-02-28T02:46:47;15.23;;;10.52;;
76593;SDS011;65482;50.240;14.302;2024-02-28T02:49:13;18.05;;;9.95;;
76593;SDS011;65482;50.240;14.302;2024-02-28T02:51:39;13.88;;;8.82;;
76593;SDS011;65482;50.240;14.302;2024-02-28T02:54:04;13.32;;;8.90;;
76593;SDS011;65482;50.240;14.302;2024-02-28T02:56:30;13.63;;;8.23;;
76593;SDS011;65482;50.240;14.302;2024-02-28T02:58:56;13.93;;;8.27;;
76593;SDS011;65482;50.240;14.302;2024-02-28T03:01:21;12.77;;;8.15;;
76593;SDS011;65482;50.240;14.302;2024-02-28T03:03:47;12.63;;;7.53;;
76593;SDS011;65482;50.240;14.302;2024-02-28T03:06:12;13.00;;;7.70;;
76593;SDS011;65482;50.240;14.302;2024-02-28T03:08:38;10.75;;;7.13;;
76593;SDS011;65482;50.240;14.302;2024-02-28T03:11:03;11.10;;;7.30;;
76593;SDS011;65482;50.240;14.302;2024-02-28T03:13:32;11.07;;;7.32;;
76593;SDS011;65482;50.240;14.302;2024-02-28T03:15:57;11.52;;;6.93;;
76593;SDS011;65482;50.240;14.302;2024-02-28T03:18:23;11.27;;;7.35;;
76593;SDS011;65482;50.240;14.302;2024-02-28T03:20:49;10.82;;;6.90;;
76593;SDS011;65482;50.240;14.302;2024-02-28T03:23:14;11.13;;;7.30;;
76593;SDS011;65482;50.240;14.302;2024-02-28T03:25:40;10.65;;;7.07;;
76593;SDS011;65482;50.240;14.302;2024-02-28T03:28:05;12.77;;;8.07;;
76593;SDS011;65482;50.240;14.302;2024-02-28T03:30:31;12.35;;;8.10;;
76593;SDS011;65482;50.240;14.302;2024-02-28T03:32:57;12.52;;;7.93;;
76593;SDS011;65482;50.240;14.302;2024-02-28T03:35:22;15.25;;;8.90;;
76593;SDS011;65482;50.240;14.302;2024-02-28T03:37:48;14.68;;;8.73;;
76593;SDS011;65482;50.240;14.302;2024-02-28T03:40:13;17.75;;;8.30;;
76593;SDS011;65482;50.240;14.302;2024-02-28T03:42:40;15.95;;;8.50;;
76593;SDS011;65482;50.240;14.302;2024-02-28T03:45:05;14.82;;;9.35;;
76593;SDS011;65482;50.240;14.302;2024-02-28T03:47:31;16.83;;;9.10;;
76593;SDS011;65482;50.240;14.302;2024-02-28T03:49:57;15.63;;;9.18;;
76593;SDS011;65482;50.240;14.302;2024-02-28T03:52:23;15.95;;;9.27;;
76593;SDS011;65482;50.240;14.302;2024-02-28T03:54:48;19.48;;;8.98;;
76593;SDS011;65482;50.240;14.302;2024-02-28T03:57:14;18.30;;;8.70;;
76593;SDS011;65482;50.240;14.302;2024-02-28T03:59:40;13.95;;;8.60;;
76593;SDS011;65482;50.240;14.302;2024-02-28T04:02:07;16.05;;;8.98;;
76593;SDS011;65482;50.240;14.302;2024-02-28T04:04:32;12.98;;;8.02;;
76593;SDS011;65482;50.240;14.302;2024-02-28T04:06:58;13.07;;;8.15;;
76593;SDS011;65482;50.240;14.302;2024-02-28T04:09:23;13.95;;;8.25;;
76593;SDS011;65482;50.240;14.302;2024-02-28T04:11:49;12.77;;;8.07;;
76593;SDS011;65482;50.240;14.302;2024-02-28T04:14:14;14.23;;;8.55;;
76593;SDS011;65482;50.240;14.302;2024-02-28T04:16:41;13.57;;;8.40;;
76593;SDS011;65482;50.240;14.302;2024-02-28T04:19:09;14.63;;;8.40;;
76593;SDS011;65482;50.240;14.302;2024-02-28T04:21:35;13.30;;;8.05;;
76593;SDS011;65482;50.240;14.302;2024-02-28T04:24:00;12.73;;;7.78;;
76593;SDS011;65482;50.240;14.302;2024-02-28T04:26:26;16.20;;;8.75;;
76593;SDS011;65482;50.240;14.302;2024-02-28T04:28:52;17.02;;;10.10;;
76593;SDS011;65482;50.240;14.302;2024-02-28T04:31:17;17.23;;;10.05;;
76593;SDS011;65482;50.240;14.302;2024-02-28T04:33:43;17.98;;;9.52;;
76593;SDS011;65482;50.240;14.302;2024-02-28T04:36:08;16.08;;;9.18;;
76593;SDS011;65482;50.240;14.302;2024-02-28T04:38:34;15.48;;;9.20;;
76593;SDS011;65482;50.240;14.302;2024-02-28T04:40:59;15.65;;;9.25;;
76593;SDS011;65482;50.240;14.302;2024-02-28T04:43:25;13.27;;;8.27;;
76593;SDS011;65482;50.240;14.302;2024-02-28T04:45:51;15.40;;;9.18;;
76593;SDS011;65482;50.240;14.302;2024-02-28T04:48:17;13.73;;;8.95;;
76593;SDS011;65482;50.240;14.302;2024-02-28T04:50:43;13.55;;;8.00;;
76593;SDS011;65482;50.240;14.302;2024-02-28T04:53:09;13.07;;;8.13;;
76593;SDS011;65482;50.240;14.302;2024-02-28T04:55:34;16.13;;;8.95;;
76593;SDS011;65482;50.240;14.302;2024-02-28T04:58:00;14.13;;;9.27;;
76593;SDS011;65482;50.240;14.302;2024-02-28T05:00:25;12.68;;;8.55;;
76593;SDS011;65482;50.240;14.302;2024-02-28T05:02:51;14.20;;;9.05;;
76593;SDS011;65482;50.240;14.302;2024-02-28T05:05:17;15.90;;;9.88;;
76593;SDS011;65482;50.240;14.302;2024-02-28T05:07:43;13.77;;;9.18;;
76593;SDS011;65482;50.240;14.302;2024-02-28T05:10:08;14.93;;;9.10;;
76593;SDS011;65482;50.240;14.302;2024-02-28T05:12:34;12.80;;;8.30;;
76593;SDS011;65482;50.240;14.302;2024-02-28T05:15:00;14.20;;;8.80;;
76593;SDS011;65482;50.240;14.302;2024-02-28T05:17:25;16.17;;;8.85;;
76593;SDS011;65482;50.240;14.302;2024-02-28T05:19:51;13.23;;;8.45;;
76593;SDS011;65482;50.240;14.302;2024-02-28T05:22:16;13.73;;;8.30;;
76593;SDS011;65482;50.240;14.302;2024-02-28T05:24:42;14.32;;;8.48;;
76593;SDS011;65482;50.240;14.302;2024-02-28T05:27:11;14.00;;;8.10;;
76593;SDS011;65482;50.240;14.302;2024-02-28T05:29:36;14.23;;;8.75;;
76593;SDS011;65482;50.240;14.302;2024-02-28T05:32:02;14.23;;;8.75;;
76593;SDS011;65482;50.240;14.302;2024-02-28T05:34:28;15.18;;;9.88;;
76593;SDS011;65482;50.240;14.302;2024-02-28T05:36:54;14.02;;;8.93;;
76593;SDS011;65482;50.240;14.302;2024-02-28T05:39:19;14.13;;;8.77;;
76593;SDS011;65482;50.240;14.302;2024-02-28T05:41:47;15.25;;;8.68;;
76593;SDS011;65482;50.240;14.302;2024-02-28T05:44:12;15.07;;;9.10;;
76593;SDS011;65482;50.240;14.302;2024-02-28T05:46:38;15.63;;;9.25;;
76593;SDS011;65482;50.240;14.302;2024-02-28T05:49:04;19.35;;;11.15;;
76593;SDS011;65482;50.240;14.302;2024-02-28T05:51:29;15.63;;;10.20;;
76593;SDS011;65482;50.240;14.302;2024-02-28T05:53:55;16.30;;;9.90;;
76593;SDS011;65482;50.240;14.302;2024-02-28T05:56:21;17.08;;;11.23;;
76593;SDS011;65482;50.240;14.302;2024-02-28T05:58:47;18.23;;;11.73;;
76593;SDS011;65482;50.240;14.302;2024-02-28T06:01:16;21.73;;;12.68;;
76593;SDS011;65482;50.240;14.302;2024-02-28T06:03:47;18.35;;;11.18;;
76593;SDS011;65482;50.240;14.302;2024-02-28T06:06:13;19.92;;;12.27;;
76593;SDS011;65482;50.240;14.302;2024-02-28T06:08:39;20.95;;;13.80;;
76593;SDS011;65482;50.240;14.302;2024-02-28T06:11:07;22.50;;;13.30;;
76593;SDS011;65482;50.240;14.302;2024-02-28T06:13:33;21.95;;;13.48;;
76593;SDS011;65482;50.240;14.302;2024-02-28T06:15:59;18.75;;;12.25;;
76593;SDS011;65482;50.240;14.302;2024-02-28T06:18:25;20.85;;;12.88;;
76593;SDS011;65482;50.240;14.302;2024-02-28T06:20:53;19.15;;;11.10;;
76593;SDS011;65482;50.240;14.302;2024-02-28T06:23:19;16.05;;;10.82;;
76593;SDS011;65482;50.240;14.302;2024-02-28T06:25:45;15.85;;;10.35;;
76593;SDS011;65482;50.240;14.302;2024-02-28T06:28:11;19.00;;;10.95;;
76593;SDS011;65482;50.240;14.302;2024-02-28T06:30:37;18.52;;;11.40;;
76593;SDS011;65482;50.240;14.302;2024-02-28T06:33:03;20.77;;;13.00;;
76593;SDS011;65482;50.240;14.302;2024-02-28T06:35:42;19.80;;;13.38;;
76593;SDS011;65482;50.240;14.302;2024-02-28T06:38:20;17.67;;;10.52;;
76593;SDS011;65482;50.240;14.302;2024-02-28T06:40:47;15.85;;;10.10;;
76593;SDS011;65482;50.240;14.302;2024-02-28T06:43:15;16.25;;;8.70;;
76593;SDS011;65482;50.240;14.302;2024-02-28T06:45:41;13.27;;;7.88;;
76593;SDS011;65482;50.240;14.302;2024-02-28T06:48:15;13.05;;;8.07;;
76593;SDS011;65482;50.240;14.302;2024-02-28T06:51:06;13.90;;;8.68;;
76593;SDS011;65482;50.240;14.302;2024-02-28T06:54:03;16.73;;;9.50;;
76593;SDS011;65482;50.240;14.302;2024-02-28T06:56:59;16.58;;;8.57;;
76593;SDS011;65482;50.240;14.302;2024-02-28T06:59:30;12.95;;;8.05;;
76593;SDS011;65482;50.240;14.302;2024-02-28T07:02:28;15.52;;;8.98;;
76593;SDS011;65482;50.240;14.302;2024-02-28T07:05:04;14.35;;;7.50;;
76593;SDS011;65482;50.240;14.302;2024-02-28T07:07:42;13.88;;;7.85;;
76593;SDS011;65482;50.240;14.302;2024-02-28T07:10:15;19.33;;;8.00;;
76593;SDS011;65482;50.240;14.302;2024-02-28T07:15:47;11.93;;;7.68;;
76593;SDS011;65482;50.240;14.302;2024-02-28T07:18:14;16.20;;;8.35;;
76593;SDS011;65482;50.240;14.302;2024-02-28T07:20:40;17.00;;;8.23;;
76593;SDS011;65482;50.240;14.302;2024-02-28T07:23:09;14.90;;;8.88;;
76593;SDS011;65482;50.240;14.302;2024-02-28T07:25:34;12.73;;;8.00;;
76593;SDS011;65482;50.240;14.302;2024-02-28T07:28:00;14.82;;;9.45;;
76593;SDS011;65482;50.240;14.302;2024-02-28T07:30:26;13.23;;;9.00;;
76593;SDS011;65482;50.240;14.302;2024-02-28T07:32:52;13.55;;;8.60;;
76593;SDS011;65482;50.240;14.302;2024-02-28T07:38:31;13.77;;;8.40;;
76593;SDS011;65482;50.240;14.302;2024-02-28T07:47:19;12.10;;;7.95;;
76593;SDS011;65482;50.240;14.302;2024-02-28T07:49:51;13.05;;;7.53;;
76593;SDS011;65482;50.240;14.302;2024-02-28T08:01:19;13.30;;;7.95;;
76593;SDS011;65482;50.240;14.302;2024-02-28T08:03:54;11.68;;;7.47;;
76593;SDS011;65482;50.240;14.302;2024-02-28T08:06:23;14.00;;;8.18;;
76593;SDS011;65482;50.240;14.302;2024-02-28T08:12:08;13.40;;;8.18;;
76593;SDS011;65482;50.240;14.302;2024-02-28T08:14:42;15.23;;;8.05;;
76593;SDS011;65482;50.240;14.302;2024-02-28T08:17:17;14.18;;;8.02;;
76593;SDS011;65482;50.240;14.302;2024-02-28T08:30:08;12.05;;;7.20;;
76593;SDS011;65482;50.240;14.302;2024-02-28T08:36:21;10.90;;;7.18;;
76593;SDS011;65482;50.240;14.302;2024-02-28T08:38:49;11.38;;;7.40;;
76593;SDS011;65482;50.240;14.302;2024-02-28T09:05:39;11.80;;;6.60;;
76593;SDS011;65482;50.240;14.302;2024-02-28T09:08:05;10.75;;;6.40;;
76593;SDS011;65482;50.240;14.302;2024-02-28T09:11:00;11.73;;;7.07;;
76593;SDS011;65482;50.240;14.302;2024-02-28T09:13:27;10.90;;;7.22;;
76593;SDS011;65482;50.240;14.302;2024-02-28T09:15:52;12.38;;;6.95;;
76593;SDS011;65482;50.240;14.302;2024-02-28T09:21:34;11.77;;;6.75;;
76593;SDS011;65482;50.240;14.302;2024-02-28T09:24:27;14.25;;;7.20;;
76593;SDS011;65482;50.240;14.302;2024-02-28T09:26:53;12.45;;;7.40;;
76593;SDS011;65482;50.240;14.302;2024-02-28T09:29:18;11.77;;;7.32;;
76593;SDS011;65482;50.240;14.302;2024-02-28T09:31:49;11.52;;;7.25;;
76593;SDS011;65482;50.240;14.302;2024-02-28T09:34:15;11.48;;;7.28;;
76593;SDS011;65482;50.240;14.302;2024-02-28T09:36:43;11.30;;;7.57;;
76593;SDS011;65482;50.240;14.302;2024-02-28T09:39:15;9.85;;;7.00;;
76593;SDS011;65482;50.240;14.302;2024-02-28T09:41:46;11.88;;;7.35;;
76593;SDS011;65482;50.240;14.302;2024-02-28T09:44:14;15.63;;;8.30;;
76593;SDS011;65482;50.240;14.302;2024-02-28T09:46:42;13.25;;;7.78;;
76593;SDS011;65482;50.240;14.302;2024-02-28T09:50:07;13.15;;;6.80;;
76593;SDS011;65482;50.240;14.302;2024-02-28T09:54:10;12.35;;;6.80;;
76593;SDS011;65482;50.240;14.302;2024-02-28T10:04:42;12.23;;;6.80;;
76593;SDS011;65482;50.240;14.302;2024-02-28T10:08:26;10.75;;;6.65;;
76593;SDS011;65482;50.240;14.302;2024-02-28T10:12:07;10.38;;;6.03;;
76593;SDS011;65482;50.240;14.302;2024-02-28T10:15:57;9.82;;;6.25;;
76593;SDS011;65482;50.240;14.302;2024-02-28T10:19:22;9.75;;;5.93;;
76593;SDS011;65482;50.240;14.302;2024-02-28T10:22:41;8.63;;;6.18;;
76593;SDS011;65482;50.240;14.302;2024-02-28T10:25:21;10.18;;;6.13;;
76593;SDS011;65482;50.240;14.302;2024-02-28T10:32:15;7.68;;;5.25;;
76593;SDS011;65482;50.240;14.302;2024-02-28T10:35:04;9.65;;;5.90;;
76593;SDS011;65482;50.240;14.302;2024-02-28T10:37:55;11.05;;;5.57;;
76593;SDS011;65482;50.240;14.302;2024-02-28T10:40:23;11.38;;;6.05;;
76593;SDS011;65482;50.240;14.302;2024-02-28T10:43:09;9.00;;;5.55;;
76593;SDS011;65482;50.240;14.302;2024-02-28T10:46:39;9.30;;;5.90;;
76593;SDS011;65482;50.240;14.302;2024-02-28T10:49:28;8.73;;;5.90;;
76593;SDS011;65482;50.240;14.302;2024-02-28T10:52:03;9.95;;;6.05;;
76593;SDS011;65482;50.240;14.302;2024-02-28T10:54:53;8.68;;;5.50;;
76593;SDS011;65482;50.240;14.302;2024-02-28T10:58:15;10.80;;;6.15;;
76593;SDS011;65482;50.240;14.302;2024-02-28T11:00:46;10.63;;;5.75;;
76593;SDS011;65482;50.240;14.302;2024-02-28T11:03:13;10.70;;;5.93;;
76593;SDS011;65482;50.240;14.302;2024-02-28T11:05:46;8.98;;;6.18;;
76593;SDS011;65482;50.240;14.302;2024-02-28T11:08:22;8.90;;;5.78;;
76593;SDS011;65482;50.240;14.302;2024-02-28T11:10:56;9.90;;;6.47;;
76593;SDS011;65482;50.240;14.302;2024-02-28T11:13:23;8.40;;;5.50;;
76593;SDS011;65482;50.240;14.302;2024-02-28T11:16:31;9.10;;;5.75;;
76593;SDS011;65482;50.240;14.302;2024-02-28T11:22:19;13.73;;;6.25;;
76593;SDS011;65482;50.240;14.302;2024-02-28T11:24:55;10.48;;;6.03;;
76593;SDS011;65482;50.240;14.302;2024-02-28T11:27:29;8.95;;;5.70;;
76593;SDS011;65482;50.240;14.302;2024-02-28T11:29:55;10.45;;;6.25;;
76593;SDS011;65482;50.240;14.302;2024-02-28T11:32:29;9.88;;;5.55;;
76593;SDS011;65482;50.240;14.302;2024-02-28T11:35:08;9.57;;;6.18;;
76593;SDS011;65482;50.240;14.302;2024-02-28T11:37:34;10.38;;;6.15;;
76593;SDS011;65482;50.240;14.302;2024-02-28T11:40:03;10.93;;;6.32;;
76593;SDS011;65482;50.240;14.302;2024-02-28T11:42:34;11.65;;;6.35;;
76593;SDS011;65482;50.240;14.302;2024-02-28T11:45:09;8.77;;;5.93;;
76593;SDS011;65482;50.240;14.302;2024-02-28T11:47:50;10.38;;;5.95;;
76593;SDS011;65482;50.240;14.302;2024-02-28T11:50:17;10.40;;;7.05;;
76593;SDS011;65482;50.240;14.302;2024-02-28T11:52:48;12.32;;;6.70;;
76593;SDS011;65482;50.240;14.302;2024-02-28T11:55:24;11.85;;;6.03;;
76593;SDS011;65482;50.240;14.302;2024-02-28T12:01:32;10.88;;;6.38;;
76593;SDS011;65482;50.240;14.302;2024-02-28T12:04:17;13.35;;;6.30;;
76593;SDS011;65482;50.240;14.302;2024-02-28T12:07:04;11.73;;;6.80;;
76593;SDS011;65482;50.240;14.302;2024-02-28T12:10:21;10.25;;;6.57;;
76593;SDS011;65482;50.240;14.302;2024-02-28T12:12:47;13.93;;;6.60;;
76593;SDS011;65482;50.240;14.302;2024-02-28T12:15:17;10.07;;;6.78;;
76593;SDS011;65482;50.240;14.302;2024-02-28T12:17:43;13.52;;;7.93;;
76593;SDS011;65482;50.240;14.302;2024-02-28T12:20:13;10.23;;;7.07;;
76593;SDS011;65482;50.240;14.302;2024-02-28T12:22:38;11.02;;;6.10;;
76593;SDS011;65482;50.240;14.302;2024-02-28T12:25:06;11.00;;;7.53;;
76593;SDS011;65482;50.240;14.302;2024-02-28T12:27:40;10.05;;;6.82;;
76593;SDS011;65482;50.240;14.302;2024-02-28T12:30:28;11.60;;;7.20;;
76593;SDS011;65482;50.240;14.302;2024-02-28T12:33:14;11.27;;;6.68;;
76593;SDS011;65482;50.240;14.302;2024-02-28T12:36:30;10.25;;;6.43;;
76593;SDS011;65482;50.240;14.302;2024-02-28T12:39:12;10.82;;;6.55;;
76593;SDS011;65482;50.240;14.302;2024-02-28T12:41:38;12.75;;;7.00;;
76593;SDS011;65482;50.240;14.302;2024-02-28T12:44:06;12.73;;;6.88;;
76593;SDS011;65482;50.240;14.302;2024-02-28T12:46:38;14.30;;;7.30;;
76593;SDS011;65482;50.240;14.302;2024-02-28T12:49:27;11.10;;;6.95;;
76593;SDS011;65482;50.240;14.302;2024-02-28T12:55:40;11.63;;;7.20;;
76593;SDS011;65482;50.240;14.302;2024-02-28T12:58:23;11.75;;;6.80;;
76593;SDS011;65482;50.240;14.302;2024-02-28T13:01:04;15.18;;;9.38;;
76593;SDS011;65482;50.240;14.302;2024-02-28T13:03:33;12.63;;;7.30;;
76593;SDS011;65482;50.240;14.302;2024-02-28T13:06:06;14.20;;;7.75;;
76593;SDS011;65482;50.240;14.302;2024-02-28T13:08:37;11.13;;;7.00;;
76593;SDS011;65482;50.240;14.302;2024-02-28T13:11:05;15.38;;;7.05;;
76593;SDS011;65482;50.240;14.302;2024-02-28T13:13:33;10.60;;;6.85;;
76593;SDS011;65482;50.240;14.302;2024-02-28T13:16:01;9.68;;;6.70;;
76593;SDS011;65482;50.240;14.302;2024-02-28T13:18:27;15.50;;;7.63;;
76593;SDS011;65482;50.240;14.302;2024-02-28T13:20:55;13.05;;;7.35;;
76593;SDS011;65482;50.240;14.302;2024-02-28T13:23:21;13.05;;;7.30;;
76593;SDS011;65482;50.240;14.302;2024-02-28T13:25:48;10.88;;;7.20;;
76593;SDS011;65482;50.240;14.302;2024-02-28T13:28:17;10.70;;;7.13;;
76593;SDS011;65482;50.240;14.302;2024-02-28T13:34:49;10.70;;;7.07;;
76593;SDS011;65482;50.240;14.302;2024-02-28T13:37:17;13.40;;;7.97;;
76593;SDS011;65482;50.240;14.302;2024-02-28T13:39:48;13.40;;;7.63;;
76593;SDS011;65482;50.240;14.302;2024-02-28T13:42:18;12.35;;;7.68;;
76593;SDS011;65482;50.240;14.302;2024-02-28T13:44:50;13.70;;;7.72;;
76593;SDS011;65482;50.240;14.302;2024-02-28T13:47:19;12.70;;;8.50;;
76593;SDS011;65482;50.240;14.302;2024-02-28T13:49:51;12.65;;;7.97;;
76593;SDS011;65482;50.240;14.302;2024-02-28T13:52:20;11.75;;;7.05;;
76593;SDS011;65482;50.240;14.302;2024-02-28T13:54:57;11.40;;;7.63;;
76593;SDS011;65482;50.240;14.302;2024-02-28T13:57:26;14.75;;;7.95;;
76593;SDS011;65482;50.240;14.302;2024-02-28T13:59:52;13.20;;;7.85;;
76593;SDS011;65482;50.240;14.302;2024-02-28T14:02:22;13.70;;;7.82;;
76593;SDS011;65482;50.240;14.302;2024-02-28T14:04:52;14.10;;;8.55;;
76593;SDS011;65482;50.240;14.302;2024-02-28T14:07:19;13.68;;;8.05;;
76593;SDS011;65482;50.240;14.302;2024-02-28T14:09:45;12.43;;;8.00;;
76593;SDS011;65482;50.240;14.302;2024-02-28T14:12:11;23.58;;;12.98;;
76593;SDS011;65482;50.240;14.302;2024-02-28T14:14:37;15.13;;;8.18;;
76593;SDS011;65482;50.240;14.302;2024-02-28T14:17:04;14.48;;;8.25;;
76593;SDS011;65482;50.240;14.302;2024-02-28T14:19:30;14.18;;;8.02;;
76593;SDS011;65482;50.240;14.302;2024-02-28T14:21:56;12.55;;;7.78;;
76593;SDS011;65482;50.240;14.302;2024-02-28T14:24:22;13.73;;;8.63;;
76593;SDS011;65482;50.240;14.302;2024-02-28T14:26:47;13.77;;;8.35;;
76593;SDS011;65482;50.240;14.302;2024-02-28T14:29:13;12.43;;;8.13;;
76593;SDS011;65482;50.240;14.302;2024-02-28T14:31:39;15.20;;;8.43;;
76593;SDS011;65482;50.240;14.302;2024-02-28T14:34:07;15.90;;;9.25;;
76593;SDS011;65482;50.240;14.302;2024-02-28T14:36:34;13.23;;;8.35;;
76593;SDS011;65482;50.240;14.302;2024-02-28T14:39:00;12.32;;;7.82;;
76593;SDS011;65482;50.240;14.302;2024-02-28T14:41:25;44.25;;;22.00;;
76593;SDS011;65482;50.240;14.302;2024-02-28T14:43:53;20.85;;;11.95;;
76593;SDS011;65482;50.240;14.302;2024-02-28T14:46:19;13.43;;;7.70;;
76593;SDS011;65482;50.240;14.302;2024-02-28T14:48:47;13.50;;;7.43;;
76593;SDS011;65482;50.240;14.302;2024-02-28T14:51:18;15.40;;;9.68;;
76593;SDS011;65482;50.240;14.302;2024-02-28T14:53:46;16.15;;;9.00;;
76593;SDS011;65482;50.240;14.302;2024-02-28T14:56:13;14.80;;;9.30;;
76593;SDS011;65482;50.240;14.302;2024-02-28T14:58:42;12.32;;;7.63;;
76593;SDS011;65482;50.240;14.302;2024-02-28T15:01:08;14.13;;;9.27;;
76593;SDS011;65482;50.240;14.302;2024-02-28T15:03:38;13.00;;;7.65;;
76593;SDS011;65482;50.240;14.302;2024-02-28T15:06:03;12.48;;;6.80;;
76593;SDS011;65482;50.240;14.302;2024-02-28T15:08:30;10.88;;;6.53;;
76593;SDS011;65482;50.240;14.302;2024-02-28T15:10:55;14.98;;;6.55;;
76593;SDS011;65482;50.240;14.302;2024-02-28T15:13:21;12.23;;;7.15;;
76593;SDS011;65482;50.240;14.302;2024-02-28T15:15:48;10.68;;;6.97;;
76593;SDS011;65482;50.240;14.302;2024-02-28T15:18:15;15.82;;;8.30;;
76593;SDS011;65482;50.240;14.302;2024-02-28T15:20:40;10.57;;;7.05;;
76593;SDS011;65482;50.240;14.302;2024-02-28T15:23:06;12.40;;;7.10;;
76593;SDS011;65482;50.240;14.302;2024-02-28T15:25:32;11.07;;;6.78;;
76593;SDS011;65482;50.240;14.302;2024-02-28T15:27:58;10.68;;;6.80;;
76593;SDS011;65482;50.240;14.302;2024-02-28T15:30:23;11.35;;;6.68;;
76593;SDS011;65482;50.240;14.302;2024-02-28T15:32:50;12.60;;;7.28;;
76593;SDS011;65482;50.240;14.302;2024-02-28T15:35:15;16.08;;;8.20;;
76593;SDS011;65482;50.240;14.302;2024-02-28T15:37:41;17.75;;;11.50;;
76593;SDS011;65482;50.240;14.302;2024-02-28T15:40:07;11.57;;;6.50;;
76593;SDS011;65482;50.240;14.302;2024-02-28T15:42:34;11.48;;;7.00;;
76593;SDS011;65482;50.240;14.302;2024-02-28T15:44:59;11.43;;;7.18;;
76593;SDS011;65482;50.240;14.302;2024-02-28T15:47:25;12.05;;;8.23;;
76593;SDS011;65482;50.240;14.302;2024-02-28T15:49:51;17.63;;;7.97;;
76593;SDS011;65482;50.240;14.302;2024-02-28T15:52:20;15.63;;;8.20;;
76593;SDS011;65482;50.240;14.302;2024-02-28T15:55:33;15.30;;;9.23;;
76593;SDS011;65482;50.240;14.302;2024-02-28T15:58:02;13.68;;;8.35;;
76593;SDS011;65482;50.240;14.302;2024-02-28T16:00:27;16.70;;;9.23;;
76593;SDS011;65482;50.240;14.302;2024-02-28T16:02:54;15.93;;;9.05;;
76593;SDS011;65482;50.240;14.302;2024-02-28T16:05:20;16.60;;;8.90;;
76593;SDS011;65482;50.240;14.302;2024-02-28T16:07:52;18.08;;;8.43;;
76593;SDS011;65482;50.240;14.302;2024-02-28T16:10:24;14.98;;;9.00;;
76593;SDS011;65482;50.240;14.302;2024-02-28T16:13:06;16.10;;;8.73;;
76593;SDS011;65482;50.240;14.302;2024-02-28T16:15:33;16.13;;;8.65;;